createdAt,value
2019-05-20T00:00:36.346Z,6.20
2019-05-20T00:03:06.636Z,6.30
2019-05-20T00:05:37.599Z,6.43
2019-05-20T00:08:08.200Z,6.77
2019-05-20T00:10:38.869Z,7.20
2019-05-20T00:13:09.174Z,6.57
2019-05-20T00:15:40.011Z,6.57
2019-05-20T00:18:10.842Z,6.83
2019-05-20T00:20:43.351Z,7.17
2019-05-20T00:23:15.520Z,6.97
2019-05-20T00:25:45.829Z,7.17
2019-05-20T00:28:16.141Z,6.53
2019-05-20T00:30:47.163Z,6.97
2019-05-20T00:33:19.202Z,8.20
2019-05-20T00:35:50.001Z,7.63
2019-05-20T00:38:21.245Z,7.67
2019-05-20T00:40:51.707Z,8.13
2019-05-20T00:43:22.671Z,8.13
2019-05-20T00:45:53.861Z,7.33
2019-05-20T00:48:25.925Z,8.07
2019-05-20T00:50:57.342Z,7.60
2019-05-20T00:53:28.662Z,7.57
2019-05-20T00:55:59.565Z,7.30
2019-05-20T00:58:32.587Z,7.60
2019-05-20T01:03:28.562Z,7.90
2019-05-20T01:05:59.381Z,8.30
2019-05-20T01:08:32.032Z,7.80
2019-05-20T01:11:05.075Z,8.00
2019-05-20T01:13:36.577Z,7.43
2019-05-20T01:16:07.847Z,7.17
2019-05-20T01:18:39.503Z,7.77
2019-05-20T01:21:10.215Z,7.93
2019-05-20T01:23:42.056Z,8.10
2019-05-20T01:26:14.046Z,7.90
2019-05-20T01:28:47.324Z,7.40
2019-05-20T01:31:18.264Z,7.73
2019-05-20T01:33:49.605Z,7.60
2019-05-20T01:36:23.355Z,7.50
2019-05-20T01:38:54.752Z,8.20
2019-05-20T01:41:26.414Z,8.43
2019-05-20T01:43:58.781Z,8.10
2019-05-20T01:46:31.074Z,7.70
2019-05-20T01:49:05.617Z,8.30
2019-05-20T01:51:36.109Z,8.63
2019-05-20T01:54:07.106Z,8.20
2019-05-20T01:56:37.777Z,7.57
2019-05-20T01:59:08.581Z,8.07
2019-05-20T02:01:40.012Z,8.13
2019-05-20T02:04:10.885Z,8.43
2019-05-20T02:06:41.602Z,7.80
2019-05-20T02:09:13.358Z,7.77
2019-05-20T02:11:46.753Z,7.73
2019-05-20T02:14:20.739Z,7.83
2019-05-20T02:16:53.272Z,8.30
2019-05-20T02:19:24.054Z,8.60
2019-05-20T02:21:55.469Z,8.10
2019-05-20T02:24:25.802Z,8.33
2019-05-20T02:26:56.136Z,8.53
2019-05-20T02:29:26.525Z,7.97
2019-05-20T02:31:56.867Z,8.50
2019-05-20T02:34:27.196Z,8.50
2019-05-20T02:36:57.523Z,8.93
2019-05-20T02:39:27.834Z,8.10
2019-05-20T02:41:58.114Z,8.13
2019-05-20T02:44:28.763Z,9.50
2019-05-20T02:46:59.126Z,9.97
2019-05-20T02:49:29.462Z,9.00
2019-05-20T02:51:59.820Z,10.30
2019-05-20T02:54:30.153Z,10.30
2019-05-20T02:57:00.657Z,9.63
2019-05-20T02:59:31.267Z,10.10
2019-05-20T03:02:01.603Z,9.97
2019-05-20T03:04:31.979Z,8.73
2019-05-20T03:07:02.373Z,8.90
2019-05-20T03:09:32.687Z,8.50
2019-05-20T03:12:04.345Z,9.27
2019-05-20T03:14:34.701Z,9.00
2019-05-20T03:17:05.090Z,10.87
2019-05-20T03:19:35.562Z,9.40
2019-05-20T03:22:06.069Z,10.37
2019-05-20T03:24:36.546Z,10.30
2019-05-20T03:27:06.471Z,10.03
2019-05-20T03:29:36.862Z,10.03
2019-05-20T03:32:07.146Z,11.17
2019-05-20T03:34:53.615Z,10.63
2019-05-20T03:37:09.450Z,10.20
2019-05-20T03:39:39.913Z,10.57
2019-05-20T03:42:10.291Z,10.80
2019-05-20T03:44:41.025Z,10.27
2019-05-20T03:47:11.434Z,11.10
2019-05-20T03:49:41.831Z,11.43
2019-05-20T03:52:12.441Z,11.87
2019-05-20T03:54:42.782Z,11.27
2019-05-20T03:57:13.194Z,11.67
2019-05-20T03:59:43.550Z,11.13
2019-05-20T04:02:13.932Z,11.47
2019-05-20T04:05:00.847Z,11.83
2019-05-20T04:07:16.387Z,12.10
2019-05-20T04:09:46.755Z,11.40
2019-05-20T04:12:17.230Z,11.60
2019-05-20T04:14:47.630Z,12.10
2019-05-20T04:17:17.950Z,12.47
2019-05-20T04:19:48.258Z,11.97
2019-05-20T04:22:18.581Z,11.97
2019-05-20T04:24:50.397Z,12.43
2019-05-20T04:27:20.746Z,12.23
2019-05-20T04:29:51.107Z,11.73
2019-05-20T04:32:21.574Z,12.00
2019-05-20T04:34:51.904Z,11.83
2019-05-20T04:37:22.302Z,11.83
2019-05-20T04:39:52.798Z,12.83
2019-05-20T04:42:23.182Z,12.37
2019-05-20T04:44:53.624Z,12.80
2019-05-20T04:47:24.288Z,12.83
2019-05-20T04:49:54.635Z,13.40
2019-05-20T04:52:25.012Z,12.33
2019-05-20T04:54:55.424Z,13.03
2019-05-20T04:57:25.748Z,13.00
2019-05-20T04:59:56.082Z,12.37
2019-05-20T05:02:26.402Z,13.67
2019-05-20T05:04:56.726Z,13.17
2019-05-20T05:07:27.142Z,13.67
2019-05-20T05:09:57.474Z,12.97
2019-05-20T05:12:28.282Z,13.03
2019-05-20T05:14:58.613Z,12.67
2019-05-20T05:17:29.118Z,13.30
2019-05-20T05:19:59.535Z,13.57
2019-05-20T05:22:29.885Z,14.50
2019-05-20T05:25:00.281Z,14.30
2019-05-20T05:27:30.786Z,14.33
2019-05-20T05:30:01.276Z,14.70
2019-05-20T05:32:44.902Z,14.70
2019-05-20T05:35:16.134Z,15.23
2019-05-20T05:37:46.688Z,15.47
2019-05-20T05:40:17.474Z,15.47
2019-05-20T05:42:47.819Z,15.47
2019-05-20T05:45:22.402Z,15.63
2019-05-20T05:47:52.824Z,15.23
2019-05-20T05:50:23.173Z,15.10
2019-05-20T05:52:53.582Z,16.27
2019-05-20T05:55:24.103Z,15.57
2019-05-20T05:57:54.504Z,15.50
2019-05-20T06:00:25.017Z,15.77
2019-05-20T06:02:55.388Z,14.60
2019-05-20T06:05:25.727Z,15.93
2019-05-20T06:07:56.056Z,16.50
2019-05-20T06:10:26.382Z,15.60
2019-05-20T06:12:56.695Z,15.23
2019-05-20T06:15:27.029Z,15.90
2019-05-20T06:17:57.426Z,16.27
2019-05-20T06:20:27.806Z,15.10
2019-05-20T06:22:58.157Z,14.90
2019-05-20T06:25:28.581Z,15.20
2019-05-20T06:27:58.893Z,15.37
2019-05-20T06:30:41.674Z,15.70
2019-05-20T06:33:12.001Z,15.50
2019-05-20T06:35:42.417Z,15.07
2019-05-20T06:38:17.829Z,16.03
2019-05-20T06:40:48.196Z,15.40
2019-05-20T06:43:18.824Z,15.77
2019-05-20T06:45:49.233Z,16.13
2019-05-20T06:48:19.623Z,16.03
2019-05-20T06:50:49.954Z,16.33
2019-05-20T06:53:20.266Z,17.00
2019-05-20T06:55:50.774Z,16.53
2019-05-20T06:58:21.138Z,16.47
2019-05-20T07:00:51.464Z,17.30
2019-05-20T07:03:21.849Z,18.10
2019-05-20T07:05:53.438Z,16.73
2019-05-20T07:08:23.895Z,18.37
2019-05-20T07:10:54.185Z,19.27
2019-05-20T07:13:24.581Z,17.10
2019-05-20T07:15:55.063Z,18.23
2019-05-20T07:18:27.460Z,18.60
2019-05-20T07:20:57.456Z,18.83
2019-05-20T07:23:27.783Z,20.90
2019-05-20T07:25:58.085Z,18.70
2019-05-20T07:28:28.420Z,18.90
2019-05-20T07:30:59.026Z,18.67
2019-05-20T07:33:29.417Z,19.93
2019-05-20T07:35:59.738Z,20.40
2019-05-20T07:38:30.123Z,19.63
2019-05-20T07:41:00.534Z,20.10
2019-05-20T07:43:30.890Z,19.77
2019-05-20T07:46:02.285Z,20.90
2019-05-20T07:48:33.427Z,21.40
2019-05-20T07:51:04.527Z,20.33
2019-05-20T07:53:35.278Z,20.37
2019-05-20T07:56:09.442Z,20.27
2019-05-20T07:58:42.329Z,20.70
2019-05-20T08:01:12.802Z,20.73
2019-05-20T08:03:43.375Z,21.37
2019-05-20T08:06:13.789Z,21.40
2019-05-20T08:08:44.139Z,19.87
2019-05-20T08:11:14.470Z,20.83
2019-05-20T08:13:44.777Z,20.67
2019-05-20T08:16:15.116Z,20.30
2019-05-20T08:18:45.660Z,21.27
2019-05-20T08:21:17.398Z,20.10
2019-05-20T08:23:50.149Z,21.20
2019-05-20T08:26:21.155Z,21.07
2019-05-20T08:28:56.040Z,19.27
2019-05-20T08:31:27.859Z,20.03
2019-05-20T08:34:05.385Z,20.07
2019-05-20T08:36:37.772Z,20.47
2019-05-20T08:39:12.002Z,20.90
2019-05-20T08:41:48.349Z,20.63
2019-05-20T08:44:20.662Z,18.97
2019-05-20T08:46:51.305Z,18.93
2019-05-20T08:49:21.748Z,20.87
2019-05-20T08:51:52.178Z,21.07
2019-05-20T08:54:22.493Z,20.63
2019-05-20T08:56:52.979Z,20.47
2019-05-20T08:59:23.294Z,19.43
2019-05-20T09:01:53.967Z,19.10
2019-05-20T09:04:24.363Z,18.87
2019-05-20T09:06:54.688Z,19.60
2019-05-20T09:09:25.245Z,18.77
2019-05-20T09:11:55.854Z,20.67
2019-05-20T09:14:26.159Z,20.97
2019-05-20T09:16:56.509Z,20.00
2019-05-20T09:19:26.816Z,20.37
2019-05-20T09:21:57.151Z,19.50
2019-05-20T09:24:27.509Z,20.23
2019-05-20T09:26:57.887Z,20.30
2019-05-20T09:29:28.162Z,19.87
2019-05-20T09:31:58.589Z,20.37
2019-05-20T09:34:29.594Z,19.27
2019-05-20T09:36:59.934Z,18.90
2019-05-20T09:39:31.389Z,18.63
2019-05-20T09:42:02.036Z,18.33
2019-05-20T09:44:32.374Z,19.10
2019-05-20T09:47:07.447Z,19.23
2019-05-20T09:49:40.058Z,19.63
2019-05-20T09:52:10.313Z,19.67
2019-05-20T09:54:41.401Z,19.47
2019-05-20T09:57:11.730Z,18.83
2019-05-20T09:59:43.828Z,19.27
2019-05-20T10:02:14.012Z,19.30
2019-05-20T10:04:44.322Z,19.50
2019-05-20T10:07:14.779Z,19.57
2019-05-20T10:09:45.106Z,20.20
2019-05-20T10:12:15.536Z,20.50
2019-05-20T10:14:46.035Z,19.37
2019-05-20T10:17:16.365Z,19.80
2019-05-20T10:19:46.744Z,19.37
2019-05-20T10:22:17.071Z,19.10
2019-05-20T10:24:49.358Z,21.37
2019-05-20T10:27:19.672Z,19.90
2019-05-20T10:29:50.010Z,20.40
2019-05-20T10:32:21.063Z,18.17
2019-05-20T10:34:51.701Z,21.30
2019-05-20T10:37:22.022Z,21.43
2019-05-20T10:39:52.370Z,19.23
2019-05-20T10:42:23.824Z,20.47
2019-05-20T10:44:54.198Z,19.07
2019-05-20T10:47:24.541Z,21.40
2019-05-20T10:49:54.901Z,19.80
2019-05-20T10:52:25.537Z,20.20
2019-05-20T10:54:55.826Z,19.00
2019-05-20T10:57:26.293Z,20.80
2019-05-20T10:59:56.756Z,19.17
2019-05-20T11:02:31.111Z,20.07
2019-05-20T11:04:59.085Z,19.97
2019-05-20T11:07:29.427Z,21.03
2019-05-20T11:09:59.834Z,20.53
2019-05-20T11:12:30.188Z,20.83
2019-05-20T11:15:00.499Z,20.13
2019-05-20T11:17:30.972Z,21.50
2019-05-20T11:20:01.379Z,20.50
2019-05-20T11:22:31.871Z,21.60
2019-05-20T11:25:02.301Z,21.23
2019-05-20T11:27:32.792Z,21.67
2019-05-20T11:30:03.218Z,22.13
2019-05-20T11:32:33.589Z,19.67
2019-05-20T11:35:03.958Z,20.97
2019-05-20T11:37:34.299Z,21.43
2019-05-20T11:40:06.251Z,21.37
2019-05-20T11:42:36.897Z,21.77
2019-05-20T11:45:08.286Z,22.03
2019-05-20T11:47:38.740Z,21.07
2019-05-20T11:50:09.796Z,22.47
2019-05-20T11:52:40.245Z,23.50
2019-05-20T11:55:11.585Z,22.33
2019-05-20T11:57:42.021Z,23.00
2019-05-20T12:00:13.015Z,22.97
2019-05-20T12:02:43.356Z,21.10
2019-05-20T12:05:15.419Z,22.83
2019-05-20T12:07:45.743Z,24.20
2019-05-20T12:10:16.907Z,23.77
2019-05-20T12:12:47.231Z,22.67
2019-05-20T12:15:18.742Z,23.23
2019-05-20T12:17:49.103Z,22.40
2019-05-20T12:20:19.942Z,22.53
2019-05-20T12:22:50.362Z,22.87
2019-05-20T12:25:21.258Z,23.80
2019-05-20T12:27:51.673Z,24.37
2019-05-20T12:30:22.448Z,23.50
2019-05-20T12:33:15.536Z,23.90
2019-05-20T12:35:24.926Z,22.90
2019-05-20T12:37:55.259Z,23.10
2019-05-20T12:40:25.657Z,24.37
2019-05-20T12:42:56.005Z,23.43
2019-05-20T12:45:26.429Z,22.13
2019-05-20T12:47:57.729Z,24.23
2019-05-20T12:50:28.101Z,23.33
2019-05-20T12:52:58.438Z,21.53
2019-05-20T12:55:28.771Z,23.67
2019-05-20T12:57:59.230Z,22.70
2019-05-20T13:00:29.543Z,24.10
2019-05-20T13:02:59.981Z,23.77
2019-05-20T13:05:30.342Z,23.47
2019-05-20T13:08:00.741Z,25.93
2019-05-20T13:10:32.355Z,25.10
2019-05-20T13:13:03.976Z,23.73
2019-05-20T13:15:37.428Z,25.50
2019-05-20T13:18:08.902Z,26.00
2019-05-20T13:20:41.032Z,26.53
2019-05-20T13:23:13.523Z,27.17
2019-05-20T13:25:43.433Z,26.47
2019-05-20T13:28:13.867Z,27.63
2019-05-20T13:30:44.263Z,27.00
2019-05-20T13:33:14.763Z,28.53
2019-05-20T13:35:45.101Z,28.33
2019-05-20T13:38:15.477Z,27.50
2019-05-20T13:40:47.346Z,27.00
2019-05-20T13:43:17.970Z,28.57
2019-05-20T13:45:48.579Z,27.67
2019-05-20T13:48:19.003Z,29.13
2019-05-20T13:50:49.302Z,29.07
2019-05-20T13:53:19.677Z,28.40
2019-05-20T13:55:50.146Z,28.17
2019-05-20T13:58:24.158Z,29.07
2019-05-20T14:00:54.603Z,29.10
2019-05-20T14:03:25.288Z,28.53
2019-05-20T14:05:56.418Z,30.30
2019-05-20T14:08:26.734Z,31.23
2019-05-20T14:11:04.262Z,28.67
2019-05-20T14:13:30.534Z,32.37
2019-05-20T14:16:01.273Z,31.23
2019-05-20T14:18:31.687Z,29.60
2019-05-20T14:21:02.065Z,31.27
2019-05-20T14:23:32.455Z,28.83
2019-05-20T14:26:02.859Z,32.07
2019-05-20T14:28:34.535Z,32.30
2019-05-20T14:31:06.034Z,33.07
2019-05-20T14:33:36.799Z,33.27
2019-05-20T14:36:12.162Z,34.23
2019-05-20T14:38:43.641Z,31.60
2019-05-20T14:41:21.710Z,33.83
2019-05-20T14:43:46.050Z,32.13
2019-05-20T14:46:16.462Z,32.17
2019-05-20T14:48:47.145Z,32.27
2019-05-20T14:51:17.897Z,33.27
2019-05-20T14:53:48.297Z,32.93
2019-05-20T14:56:18.630Z,33.40
2019-05-20T14:58:48.943Z,33.60
2019-05-20T15:01:19.327Z,33.83
2019-05-20T15:03:50.639Z,33.70
2019-05-20T15:06:21.544Z,31.33
2019-05-20T15:08:53.204Z,32.43
2019-05-20T15:11:37.858Z,32.57
2019-05-20T15:14:00.281Z,32.77
2019-05-20T15:17:04.194Z,33.53
2019-05-20T15:19:39.851Z,33.60
2019-05-20T15:22:14.229Z,32.70
2019-05-20T15:24:50.839Z,31.37
2019-05-20T15:27:27.105Z,29.30
2019-05-20T15:30:02.656Z,32.60
2019-05-20T15:32:39.501Z,30.23
2019-05-20T15:35:10.910Z,30.33
2019-05-20T15:37:41.994Z,30.33
2019-05-20T15:40:12.808Z,30.77
2019-05-20T15:42:43.172Z,31.00
2019-05-20T15:45:13.983Z,31.23
2019-05-20T15:47:44.305Z,28.20
2019-05-20T15:50:15.069Z,28.40
2019-05-20T15:52:45.458Z,30.97
2019-05-20T15:55:15.738Z,30.10
2019-05-20T15:57:46.069Z,28.87
2019-05-20T16:00:18.130Z,30.33
2019-05-20T16:02:48.477Z,31.47
2019-05-20T16:05:18.839Z,31.23
2019-05-20T16:07:49.140Z,29.10
2019-05-20T16:10:19.662Z,30.60
2019-05-20T16:12:49.990Z,29.07
2019-05-20T16:15:20.319Z,30.60
2019-05-20T16:17:50.638Z,30.13
2019-05-20T16:20:21.190Z,31.77
2019-05-20T16:22:51.509Z,30.43
2019-05-20T16:25:21.980Z,30.43
2019-05-20T16:27:52.277Z,31.03
2019-05-20T16:30:22.730Z,31.20
2019-05-20T16:32:53.123Z,30.33
2019-05-20T16:35:23.549Z,31.00
2019-05-20T16:37:53.898Z,30.67
2019-05-20T16:40:24.261Z,30.50
2019-05-20T16:42:54.622Z,30.30
2019-05-20T16:45:25.020Z,31.70
2019-05-20T16:47:57.934Z,31.93
2019-05-20T16:50:29.380Z,31.67
2019-05-20T16:52:59.812Z,31.93
2019-05-20T16:55:30.162Z,32.13
2019-05-20T16:58:00.537Z,31.80
2019-05-20T17:00:32.328Z,30.17
2019-05-20T17:03:02.799Z,31.23
2019-05-20T17:05:33.156Z,32.00
2019-05-20T17:08:03.608Z,33.77
2019-05-20T17:10:33.967Z,33.47
2019-05-20T17:13:07.625Z,31.70
2019-05-20T17:15:45.092Z,31.30
2019-05-20T17:18:25.859Z,31.13
2019-05-20T17:21:01.440Z,33.00
2019-05-20T17:23:33.607Z,31.83
2019-05-20T17:26:05.181Z,33.30
2019-05-20T17:28:35.475Z,33.77
2019-05-20T17:31:07.069Z,32.57
2019-05-20T17:33:38.298Z,33.57
2019-05-20T17:36:09.255Z,33.07
2019-05-20T17:38:41.395Z,34.40
2019-05-20T17:41:11.838Z,34.53
2019-05-20T17:43:42.193Z,35.40
2019-05-20T17:46:12.540Z,35.33
2019-05-20T17:48:42.979Z,37.17
2019-05-20T17:51:13.438Z,38.90
2019-05-20T17:53:43.838Z,36.50
2019-05-20T17:56:14.232Z,40.67
2019-05-20T17:58:44.661Z,39.10
2019-05-20T18:01:16.191Z,39.30
2019-05-20T18:03:46.873Z,35.53
2019-05-20T18:06:17.215Z,39.23
2019-05-20T18:08:50.506Z,37.50
2019-05-20T18:11:23.561Z,34.43
2019-05-20T18:13:53.887Z,24.50
2019-05-20T18:16:29.021Z,26.37
2019-05-20T18:19:02.041Z,28.47
2019-05-20T18:21:33.601Z,26.67
2019-05-20T18:24:05.881Z,25.63
2019-05-20T18:26:38.664Z,26.23
2019-05-20T18:29:13.001Z,22.03
2019-05-20T18:31:45.270Z,16.90
2019-05-20T18:34:18.131Z,16.97
2019-05-20T18:36:50.389Z,16.07
2019-05-20T18:39:22.480Z,15.23
2019-05-20T18:41:55.378Z,14.93
2019-05-20T18:44:27.292Z,14.13
2019-05-20T18:46:59.542Z,12.60
2019-05-20T18:49:36.289Z,9.83
2019-05-20T18:52:11.324Z,10.20
2019-05-20T18:54:43.518Z,9.10
2019-05-20T18:57:16.854Z,7.57
2019-05-20T18:59:48.447Z,8.10
2019-05-20T19:02:20.633Z,8.53
2019-05-20T19:04:54.552Z,9.47
2019-05-20T19:07:27.013Z,9.57
2019-05-20T19:09:59.661Z,9.37
2019-05-20T19:12:32.399Z,8.77
2019-05-20T19:15:06.207Z,8.30
2019-05-20T19:17:39.806Z,8.10
2019-05-20T19:20:11.756Z,7.23
2019-05-20T19:22:45.000Z,7.00
2019-05-20T19:25:20.121Z,6.87
2019-05-20T19:27:56.311Z,7.60
2019-05-20T19:30:28.294Z,7.53
2019-05-20T19:33:03.802Z,7.40
2019-05-20T19:35:39.839Z,7.80
2019-05-20T19:38:10.166Z,7.50
2019-05-20T19:40:40.906Z,8.00
2019-05-20T19:43:11.258Z,7.97
2019-05-20T19:45:41.606Z,8.30
2019-05-20T19:48:11.900Z,8.27
2019-05-20T19:50:42.314Z,8.13
2019-05-20T19:53:12.750Z,7.87
2019-05-20T19:55:43.058Z,7.80
2019-05-20T19:58:13.389Z,8.40
2019-05-20T20:00:43.957Z,7.63
2019-05-20T20:03:14.269Z,7.47
2019-05-20T20:05:44.613Z,7.20
2019-05-20T20:08:15.178Z,7.80
2019-05-20T20:10:45.079Z,8.03
2019-05-20T20:13:15.698Z,8.10
2019-05-20T20:15:46.040Z,7.90
2019-05-20T20:18:16.485Z,8.23
2019-05-20T20:20:46.809Z,8.80
2019-05-20T20:23:19.322Z,8.53
2019-05-20T20:25:49.888Z,8.83
2019-05-20T20:28:20.333Z,9.67
2019-05-20T20:30:50.747Z,8.97
2019-05-20T20:33:21.283Z,9.67
2019-05-20T20:35:51.579Z,9.63
2019-05-20T20:38:21.905Z,11.10
2019-05-20T20:40:52.262Z,11.57
2019-05-20T20:43:22.602Z,12.87
2019-05-20T20:45:53.126Z,12.17
2019-05-20T20:48:23.560Z,12.73
2019-05-20T20:50:54.028Z,13.43
2019-05-20T20:53:24.029Z,11.43
2019-05-20T20:55:54.735Z,11.13
2019-05-20T20:58:25.791Z,12.83
2019-05-20T21:00:56.081Z,11.53
2019-05-20T21:03:26.808Z,11.77
2019-05-20T21:05:59.551Z,11.43
2019-05-20T21:08:30.079Z,10.40
2019-05-20T21:11:00.427Z,11.03
2019-05-20T21:13:30.783Z,10.33
2019-05-20T21:16:01.086Z,8.07
2019-05-20T21:18:31.916Z,6.30
2019-05-20T21:21:02.295Z,3.40
2019-05-20T21:23:33.770Z,3.83
2019-05-20T21:26:04.125Z,4.13
2019-05-20T21:28:35.332Z,3.10
2019-05-20T21:31:05.659Z,3.10
2019-05-20T21:33:36.076Z,2.60
2019-05-20T21:36:06.466Z,2.40
2019-05-20T21:38:36.797Z,2.50
2019-05-20T21:41:07.381Z,2.33
2019-05-20T21:43:39.465Z,2.33
2019-05-20T21:46:09.951Z,2.43
2019-05-20T21:48:40.851Z,2.93
2019-05-20T21:51:11.651Z,3.40
2019-05-20T21:53:42.342Z,4.53
2019-05-20T21:56:12.731Z,3.83
2019-05-20T21:58:43.055Z,5.07
2019-05-20T22:01:13.502Z,5.50
2019-05-20T22:03:43.969Z,5.60
2019-05-20T22:06:14.280Z,5.93
2019-05-20T22:08:44.646Z,6.73
2019-05-20T22:11:14.947Z,7.23
2019-05-20T22:13:45.486Z,8.90
2019-05-20T22:16:15.977Z,8.30
2019-05-20T22:18:46.969Z,9.47
2019-05-20T22:21:20.423Z,9.37
2019-05-20T22:23:55.726Z,9.80
2019-05-20T22:26:25.650Z,12.23
2019-05-20T22:28:56.109Z,11.83
2019-05-20T22:31:29.288Z,11.93
2019-05-20T22:33:59.463Z,14.13
2019-05-20T22:36:35.793Z,14.30
2019-05-20T22:39:10.005Z,16.30
2019-05-20T22:41:42.455Z,19.83
2019-05-20T22:44:14.431Z,21.00
2019-05-20T22:46:45.164Z,20.70
2019-05-20T22:49:15.591Z,20.93
2019-05-20T22:51:46.002Z,20.50
2019-05-20T22:54:20.549Z,18.30
2019-05-20T22:56:50.867Z,18.60
2019-05-20T22:59:21.337Z,16.57
2019-05-20T23:01:51.701Z,15.40
2019-05-20T23:04:22.116Z,14.87
2019-05-20T23:06:52.974Z,13.67
2019-05-20T23:09:23.337Z,13.67
2019-05-20T23:11:53.665Z,12.40
2019-05-20T23:14:24.017Z,12.20
2019-05-20T23:16:54.444Z,11.47
2019-05-20T23:19:24.789Z,9.97
2019-05-20T23:21:55.147Z,9.63
2019-05-20T23:24:25.615Z,8.33
2019-05-20T23:26:55.909Z,9.03
2019-05-20T23:29:26.410Z,8.53
2019-05-20T23:31:56.696Z,7.93
2019-05-20T23:34:27.071Z,7.10
2019-05-20T23:36:57.392Z,6.10
2019-05-20T23:39:27.831Z,6.00
2019-05-20T23:41:58.217Z,5.57
2019-05-20T23:44:28.646Z,4.63
2019-05-20T23:46:59.020Z,5.30
2019-05-20T23:49:29.343Z,5.03
2019-05-20T23:51:59.641Z,4.40
2019-05-20T23:54:29.941Z,4.57
2019-05-20T23:57:00.282Z,4.60
2019-05-20T23:59:30.581Z,4.10
